Time;durP1;ratioP1;P1;durP2;ratioP2;P2;SDS_P1;SDS_P2;PMS_P1;PMS_P2;Temp;Humidity;BMP_temperature;BMP_pressure;BME280_temperature;BME280_humidity;BME280_pressure;Samples;Min_cycle;Max_cycle;Signal;HPM_P1;HPM_P2
2023/06/19 00:02:00;;;;;;;0.70;0.38;;;;;;;26.36;88.69;100784.03;10435276;28;20051;-80
2023/06/19 00:07:01;;;;;;;0.80;0.30;;;;;;;26.20;88.19;100775.91;10454132;28;20080;-80
2023/06/19 00:12:04;;;;;;;0.30;0.30;;;;;;;26.33;87.81;100783.28;10425757;28;20049;-79
2023/06/19 00:17:06;;;;;;;0.45;0.30;;;;;;;26.54;88.29;100777.13;10471106;28;20044;-80
2023/06/19 00:22:08;;;;;;;0.20;0.20;;;;;;;26.12;89.06;100772.72;10442894;28;20143;-80
2023/06/19 00:27:09;;;;;;;0.57;0.25;;;;;;;25.84;91.81;100780.88;10450476;28;20051;-80
2023/06/19 00:32:11;;;;;;;0.63;0.57;;;;;;;25.76;93.49;100794.38;10451896;28;20045;-80
2023/06/19 00:37:13;;;;;;;0.60;0.52;;;;;;;25.88;94.96;100793.03;10447746;28;20492;-80
2023/06/19 00:42:14;;;;;;;0.55;0.55;;;;;;;25.98;95.15;100794.38;10434460;28;20079;-80
2023/06/19 00:47:16;;;;;;;0.40;0.40;;;;;;;26.07;96.18;100809.84;10438243;28;20052;-80
2023/06/19 00:52:18;;;;;;;0.50;0.20;;;;;;;25.88;96.65;100820.25;10436297;28;20098;-79
2023/06/19 00:57:19;;;;;;;0.65;0.38;;;;;;;25.91;97.11;100816.66;10436926;28;20049;-80
2023/06/19 01:02:23;;;;;;;0.32;0.30;;;;;;;26.24;97.06;100811.81;10452791;28;20555;-79
2023/06/19 01:07:52;;;;;;;0.45;0.43;;;;;;;26.10;97.26;100819.47;10446469;28;20050;-80
2023/06/19 01:13:06;;;;;;;0.75;0.43;;;;;;;25.91;99.22;100825.44;10444447;28;20755;-79
2023/06/19 01:18:11;;;;;;;0.22;0.22;;;;;;;25.97;98.77;100825.19;10441009;28;20393;-80
2023/06/19 01:23:13;;;;;;;1.08;0.93;;;;;;;26.11;98.95;100826.44;10451933;28;20041;-80
2023/06/19 01:28:15;;;;;;;0.47;0.20;;;;;;;25.86;99.05;100830.03;10455462;28;20053;-80
2023/06/19 01:33:26;;;;;;;0.38;0.38;;;;;;;25.78;99.38;100832.13;10447627;28;20052;-80
2023/06/19 01:38:29;;;;;;;0.17;0.17;;;;;;;25.86;100.00;100824.75;10443672;28;20037;-80
2023/06/19 01:43:32;;;;;;;0.65;0.50;;;;;;;25.66;100.00;100836.94;10435895;28;20067;-79
2023/06/19 01:48:36;;;;;;;0.40;0.40;;;;;;;25.66;100.00;100826.38;10444898;28;20052;-80
2023/06/19 01:53:40;;;;;;;0.95;0.50;;;;;;;25.59;100.00;100834.59;10452051;28;20503;-79
2023/06/19 01:58:43;;;;;;;0.20;0.10;;;;;;;25.57;100.00;100837.31;10448449;28;20046;-80
2023/06/19 02:03:45;;;;;;;0.70;0.52;;;;;;;25.25;100.00;100841.09;10434302;28;20048;-79
2023/06/19 02:08:48;;;;;;;0.35;0.35;;;;;;;25.22;100.00;100847.34;10459695;28;20079;-79
2023/06/19 02:13:50;;;;;;;0.43;0.28;;;;;;;24.97;100.00;100847.34;10418611;28;20102;-79
2023/06/19 02:18:51;;;;;;;1.60;0.47;;;;;;;25.02;100.00;100845.41;10461018;28;20040;-79
2023/06/19 02:23:53;;;;;;;0.80;0.50;;;;;;;25.59;100.00;100851.28;10457748;28;20102;-79
2023/06/19 02:28:56;;;;;;;0.45;0.25;;;;;;;25.12;100.00;100856.50;10441307;28;20655;-80
2023/06/19 02:33:57;;;;;;;0.65;0.65;;;;;;;24.96;100.00;100857.06;10462417;28;20559;-79
2023/06/19 02:38:59;;;;;;;1.20;0.30;;;;;;;24.66;100.00;100870.38;10441603;28;20048;-79
2023/06/19 02:44:01;;;;;;;0.30;0.30;;;;;;;24.59;100.00;100863.56;10448420;28;20041;-80
2023/06/19 02:49:03;;;;;;;0.70;0.55;;;;;;;24.57;100.00;100872.41;10458012;28;20041;-79
2023/06/19 02:54:06;;;;;;;0.30;0.30;;;;;;;24.49;100.00;100877.91;10458235;28;20053;-80
2023/06/19 02:59:08;;;;;;;0.88;0.28;;;;;;;24.75;100.00;100890.25;10441404;28;20049;-80
2023/06/19 03:04:09;;;;;;;0.82;0.28;;;;;;;24.37;100.00;100894.97;10424357;28;20048;-80
2023/06/19 03:09:12;;;;;;;0.30;0.22;;;;;;;24.23;100.00;100909.44;10460818;28;20043;-80
2023/06/19 03:14:14;;;;;;;0.47;0.32;;;;;;;24.10;100.00;100923.00;10462059;28;20091;-79
2023/06/19 03:19:16;;;;;;;1.05;0.75;;;;;;;24.26;100.00;100921.66;10440741;28;20045;-81
2023/06/19 03:24:18;;;;;;;0.63;0.32;;;;;;;23.96;100.00;100921.66;10441289;28;20041;-80
2023/06/19 03:29:19;;;;;;;0.15;0.15;;;;;;;24.10;100.00;100929.16;10453930;28;20564;-81
2023/06/19 03:34:38;;;;;;;0.05;0.05;;;;;;;24.26;100.00;100912.91;10441945;28;20199;-80
2023/06/19 03:39:42;;;;;;;0.52;0.52;;;;;;;23.73;100.00;100936.31;10460357;28;20049;-80
2023/06/19 03:44:45;;;;;;;0.32;0.20;;;;;;;23.66;100.00;100940.03;10460496;28;20060;-80
2023/06/19 03:49:48;;;;;;;0.85;0.22;;;;;;;23.60;100.00;100953.38;10473038;28;20044;-80
2023/06/19 03:54:50;;;;;;;0.45;0.28;;;;;;;23.21;100.00;100953.53;10461915;28;20083;-79
2023/06/19 03:59:53;;;;;;;0.40;0.15;;;;;;;22.99;100.00;100943.53;10441858;28;20052;-81
2023/06/19 04:04:56;;;;;;;0.65;0.45;;;;;;;23.05;100.00;100953.88;10454779;28;20037;-81
2023/06/19 04:09:58;;;;;;;0.43;0.43;;;;;;;23.16;100.00;100960.63;10450371;28;20436;-81
2023/06/19 04:15:00;;;;;;;1.15;0.68;;;;;;;23.20;100.00;100962.31;10431610;28;20049;-80
2023/06/19 04:20:10;;;;;;;0.68;0.30;;;;;;;22.95;100.00;100970.78;10469527;28;20076;-81
2023/06/19 04:25:13;;;;;;;0.10;0.10;;;;;;;22.82;100.00;100978.97;10447992;28;20038;-80
2023/06/19 04:30:14;;;;;;;0.38;0.22;;;;;;;22.88;100.00;100977.94;10451260;28;20132;-80
2023/06/19 04:35:18;;;;;;;0.10;0.10;;;;;;;22.86;100.00;100992.88;10459736;28;20049;-81
2023/06/19 04:40:20;;;;;;;0.10;0.10;;;;;;;22.92;100.00;100994.50;10470197;28;20076;-80
2023/06/19 04:45:22;;;;;;;0.25;0.25;;;;;;;23.00;100.00;101008.31;10437156;28;20049;-81
2023/06/19 04:50:24;;;;;;;0.35;0.20;;;;;;;23.20;100.00;101004.34;10429367;28;20412;-80
2023/06/19 04:55:26;;;;;;;0.00;0.00;;;;;;;22.88;100.00;101006.84;10440223;28;20045;-80
2023/06/19 05:00:28;;;;;;;0.28;0.15;;;;;;;22.79;100.00;101010.56;10481818;28;20044;-80
2023/06/19 05:05:30;;;;;;;0.10;0.10;;;;;;;22.78;100.00;101014.09;10454102;28;20128;-80
2023/06/19 05:10:31;;;;;;;1.17;0.73;;;;;;;22.90;100.00;101015.56;10457598;28;20069;-80
2023/06/19 05:15:33;;;;;;;0.32;0.30;;;;;;;23.07;100.00;101019.56;10438398;28;20121;-80
2023/06/19 05:20:35;;;;;;;0.05;0.05;;;;;;;23.09;100.00;101023.88;10441742;28;20865;-80
2023/06/19 05:25:36;;;;;;;0.00;0.00;;;;;;;22.88;100.00;101034.91;10447882;28;20477;-80
2023/06/19 05:30:38;;;;;;;0.15;0.10;;;;;;;23.24;100.00;101030.53;10439806;28;20052;-80
2023/06/19 05:35:40;;;;;;;0.60;0.40;;;;;;;23.01;100.00;101027.59;10427798;28;20049;-80
2023/06/19 05:40:41;;;;;;;0.00;0.00;;;;;;;23.28;100.00;101031.31;10435194;28;20045;-80
2023/06/19 05:45:43;;;;;;;3.40;0.45;;;;;;;23.83;100.00;101030.78;10426531;28;20045;-80
2023/06/19 05:50:45;;;;;;;4.57;0.63;;;;;;;23.82;100.00;101039.56;10458791;28;20087;-82
2023/06/19 05:55:47;;;;;;;0.10;0.10;;;;;;;23.72;100.00;101052.97;10451765;28;20037;-80
2023/06/19 06:00:49;;;;;;;0.15;0.15;;;;;;;23.52;100.00;101053.50;10443102;28;20421;-80
2023/06/19 06:05:51;;;;;;;0.60;0.60;;;;;;;23.48;100.00;101066.78;10473024;28;20444;-81
2023/06/19 06:10:52;;;;;;;0.28;0.00;;;;;;;24.04;100.00;101067.03;10446072;28;20044;-81
2023/06/19 06:15:54;;;;;;;2.17;0.10;;;;;;;23.27;100.00;101079.56;10461720;28;20033;-80
2023/06/19 06:20:56;;;;;;;0.75;0.30;;;;;;;23.80;100.00;101075.56;10428608;28;20047;-81
2023/06/19 06:26:02;;;;;;;0.55;0.43;;;;;;;23.76;100.00;101078.28;10459558;28;20050;-80
2023/06/19 06:31:04;;;;;;;0.20;0.20;;;;;;;24.32;100.00;101075.94;10449585;28;20407;-81
2023/06/19 06:36:05;;;;;;;0.05;0.05;;;;;;;24.24;100.00;101079.66;10448402;28;20053;-81
2023/06/19 06:41:09;;;;;;;1.73;0.20;;;;;;;24.33;100.00;101078.50;10451407;28;20079;-80
2023/06/19 06:46:11;;;;;;;0.10;0.10;;;;;;;24.62;100.00;101087.31;10465699;28;20051;-80
2023/06/19 06:51:12;;;;;;;2.40;0.32;;;;;;;24.41;100.00;101096.72;10475785;28;20037;-80
2023/06/19 06:56:14;;;;;;;0.60;0.60;;;;;;;24.85;100.00;101101.59;10463206;28;20707;-80
2023/06/19 07:01:16;;;;;;;1.08;0.30;;;;;;;24.31;100.00;101104.00;10437309;28;20083;-81
2023/06/19 07:06:17;;;;;;;0.10;0.10;;;;;;;24.63;100.00;101111.91;10437136;28;20044;-81
2023/06/19 07:11:19;;;;;;;0.88;0.60;;;;;;;24.49;100.00;101120.19;10468470;28;20063;-81
2023/06/19 07:22:53;;;;;;;0.22;0.22;;;;;;;23.67;100.00;101125.88;10427625;28;20061;-80
2023/06/19 07:27:55;;;;;;;0.55;0.40;;;;;;;23.95;100.00;101142.75;10450954;28;20044;-80
2023/06/19 07:32:57;;;;;;;0.10;0.10;;;;;;;24.28;100.00;101143.59;10442821;28;20404;-80
2023/06/19 07:37:58;;;;;;;0.03;0.03;;;;;;;24.45;100.00;101139.63;10431576;28;20132;-80
2023/06/19 07:43:00;;;;;;;0.20;0.20;;;;;;;24.55;100.00;101138.44;10454425;28;20056;-80
2023/06/19 07:48:02;;;;;;;0.20;0.10;;;;;;;24.68;100.00;101136.38;10459467;28;20046;-81
2023/06/19 07:53:04;;;;;;;0.73;0.38;;;;;;;24.71;100.00;101146.81;10467368;28;20118;-80
2023/06/19 07:58:05;;;;;;;0.10;0.10;;;;;;;25.69;100.00;101144.63;10460496;28;20045;-80
2023/06/19 08:03:07;;;;;;;0.15;0.15;;;;;;;25.09;100.00;101152.72;10442860;28;20059;-80
2023/06/19 08:08:09;;;;;;;1.33;0.77;;;;;;;24.73;100.00;101159.94;10454189;28;20045;-81
2023/06/19 08:13:11;;;;;;;0.45;0.30;;;;;;;24.64;100.00;101166.31;10463058;28;20045;-79
2023/06/19 08:25:06;;;;;;;0.47;0.32;;;;;;;24.80;100.00;101180.78;10453525;28;20045;-80
2023/06/19 08:30:08;;;;;;;1.20;0.22;;;;;;;25.08;100.00;101182.63;10463827;28;20067;-80
2023/06/19 08:35:09;;;;;;;0.22;0.20;;;;;;;25.78;100.00;101172.50;10433989;28;20056;-81
2023/06/19 08:40:12;;;;;;;0.75;0.55;;;;;;;25.68;100.00;101171.97;10440356;28;20464;-81
2023/06/19 08:45:13;;;;;;;0.17;0.13;;;;;;;26.33;100.00;101168.88;10448420;28;20060;-80
2023/06/19 08:50:16;;;;;;;0.32;0.28;;;;;;;27.20;100.00;101158.59;10444149;28;20143;-80
2023/06/19 08:55:18;;;;;;;0.50;0.40;;;;;;;27.75;100.00;101167.88;10431050;28;20049;-80
2023/06/19 09:00:25;;;;;;;0.30;0.30;;;;;;;27.85;100.00;101179.81;10436958;28;20049;-81
2023/06/19 09:05:27;;;;;;;1.85;0.95;;;;;;;27.78;100.00;101188.91;10432443;28;20586;-80
2023/06/19 09:10:30;;;;;;;0.75;0.57;;;;;;;28.23;100.00;101185.22;10457624;28;20045;-80
2023/06/19 09:15:35;;;;;;;0.60;0.47;;;;;;;28.03;100.00;101183.44;10425721;28;20049;-80
2023/06/19 09:20:44;;;;;;;0.28;0.28;;;;;;;27.94;100.00;101189.97;10430135;28;20047;-80
2023/06/19 09:25:51;;;;;;;0.32;0.32;;;;;;;27.40;100.00;101189.53;10432849;28;20047;-81
2023/06/19 09:30:58;;;;;;;0.32;0.30;;;;;;;27.14;100.00;101204.66;10462560;28;20577;-81
2023/06/19 09:36:02;;;;;;;0.65;0.60;;;;;;;27.95;100.00;101193.50;10424566;28;20053;-81
2023/06/19 09:41:06;;;;;;;1.27;0.80;;;;;;;27.96;100.00;101208.47;10424434;28;20052;-80
2023/06/19 09:46:09;;;;;;;0.38;0.38;;;;;;;28.38;100.00;101220.81;10456430;28;20045;-82
2023/06/19 09:51:19;;;;;;;0.68;0.68;;;;;;;28.69;98.21;101222.13;10460081;28;20037;-81
2023/06/19 09:56:27;;;;;;;1.25;0.55;;;;;;;28.94;99.15;101224.50;10432460;28;20041;-81
2023/06/19 10:01:32;;;;;;;2.67;0.98;;;;;;;28.48;97.15;101227.38;10440538;28;20040;-82
2023/06/19 10:06:43;;;;;;;1.38;0.60;;;;;;;28.97;98.50;101228.78;10428020;28;20060;-82
2023/06/19 10:11:46;;;;;;;0.38;0.28;;;;;;;29.51;94.26;101238.69;10444484;28;20076;-81
2023/06/19 10:16:48;;;;;;;0.45;0.40;;;;;;;30.09;91.92;101244.69;10436876;28;20568;-82
2023/06/19 10:21:54;;;;;;;0.55;0.55;;;;;;;30.90;92.82;101241.38;10458857;28;20041;-82
2023/06/19 10:26:58;;;;;;;0.82;0.32;;;;;;;28.41;95.52;101246.28;10442880;28;20041;-82
2023/06/19 10:32:00;;;;;;;0.47;0.47;;;;;;;29.05;91.21;101245.22;10424873;28;20049;-82
2023/06/19 10:37:02;;;;;;;1.13;0.80;;;;;;;28.96;89.83;101235.03;10448328;28;20049;-81
2023/06/19 10:42:08;;;;;;;0.90;0.50;;;;;;;28.90;90.28;101235.31;10431363;28;20042;-81
2023/06/19 10:47:10;;;;;;;0.30;0.20;;;;;;;28.81;91.15;101240.09;10453262;28;20060;-81
2023/06/19 10:52:13;;;;;;;1.02;0.93;;;;;;;30.53;88.20;101228.25;10453829;28;20110;-82
2023/06/19 10:57:14;;;;;;;0.20;0.20;;;;;;;29.13;91.57;101235.09;10437504;28;20048;-80
2023/06/19 11:02:18;;;;;;;1.10;0.98;;;;;;;30.48;87.24;101224.97;10433969;28;20041;-82
2023/06/19 11:07:22;;;;;;;1.65;1.38;;;;;;;30.16;90.09;101230.16;10454348;28;20557;-83
2023/06/19 11:12:23;;;;;;;0.77;0.63;;;;;;;31.09;86.68;101233.28;10465691;28;20049;-80
2023/06/19 11:17:25;;;;;;;0.65;0.43;;;;;;;29.74;88.69;101230.44;10436645;28;20051;-82
2023/06/19 11:22:38;;;;;;;0.40;0.40;;;;;;;30.47;86.21;101226.75;10443588;28;20044;-83
2023/06/19 11:27:40;;;;;;;2.33;0.85;;;;;;;31.07;81.01;101227.13;10439224;28;20049;-82
2023/06/19 11:32:44;;;;;;;0.80;0.47;;;;;;;30.56;85.05;101221.91;10450059;28;20073;-81
2023/06/19 11:37:46;;;;;;;0.47;0.47;;;;;;;31.95;79.83;101223.00;10438119;28;20049;-82
2023/06/19 11:42:51;;;;;;;2.28;0.50;;;;;;;30.31;83.91;101229.34;10430075;28;20086;-81
2023/06/19 11:47:54;;;;;;;1.20;0.60;;;;;;;30.50;87.16;101225.72;10444331;28;20075;-82
2023/06/19 11:52:57;;;;;;;1.13;0.68;;;;;;;30.10;83.25;101233.13;10447431;28;20404;-82
2023/06/19 11:57:59;;;;;;;2.42;0.90;;;;;;;30.27;82.19;101233.09;10464667;28;20040;-83
2023/06/19 12:03:01;;;;;;;0.50;0.40;;;;;;;29.87;81.22;101225.34;10436382;28;20048;-81
2023/06/19 12:08:04;;;;;;;0.57;0.43;;;;;;;30.44;84.23;101226.91;10449475;28;20037;-82
2023/06/19 12:13:05;;;;;;;1.60;0.60;;;;;;;30.55;81.91;101223.72;10454863;28;20052;-82
2023/06/19 12:18:07;;;;;;;0.50;0.50;;;;;;;30.65;81.26;101221.41;10427305;28;20114;-82
2023/06/19 12:23:09;;;;;;;0.52;0.47;;;;;;;31.42;78.16;101221.66;10464044;28;20080;-81
2023/06/19 12:28:11;;;;;;;0.40;0.35;;;;;;;31.14;82.88;101223.22;10429242;28;20064;-82
2023/06/19 12:33:13;;;;;;;1.20;0.50;;;;;;;31.07;80.20;101227.97;10447171;28;20087;-81
2023/06/19 12:38:15;;;;;;;1.83;1.08;;;;;;;30.55;79.00;101226.38;10446487;28;20132;-81
2023/06/19 12:43:17;;;;;;;0.30;0.22;;;;;;;31.38;81.81;101214.78;10463175;28;20044;-82
2023/06/19 12:48:19;;;;;;;0.93;0.85;;;;;;;30.96;78.58;101225.91;10445991;28;20130;-82
2023/06/19 12:53:26;;;;;;;0.57;0.52;;;;;;;30.59;77.33;101227.91;10451104;28;20053;-82
2023/06/19 12:58:28;;;;;;;1.35;0.88;;;;;;;31.33;77.97;101221.22;10427372;28;20045;-81
2023/06/19 13:03:29;;;;;;;1.17;0.80;;;;;;;30.29;80.11;101236.53;10445678;28;20037;-80
2023/06/19 13:08:31;;;;;;;1.70;0.98;;;;;;;31.22;76.10;101226.31;10453874;28;20045;-79
2023/06/19 13:13:33;;;;;;;0.60;0.52;;;;;;;30.43;80.61;101241.16;10447636;28;20048;-79
2023/06/19 13:18:35;;;;;;;1.10;1.00;;;;;;;30.73;75.83;101237.81;10444645;28;20055;-79
2023/06/19 13:23:37;;;;;;;1.25;0.52;;;;;;;30.48;79.35;101240.91;10445169;28;20144;-79
2023/06/19 13:28:39;;;;;;;0.73;0.65;;;;;;;30.57;76.49;101228.94;10442288;28;20064;-80
2023/06/19 13:33:40;;;;;;;0.70;0.65;;;;;;;30.67;77.71;101224.88;10447266;28;20037;-79
2023/06/19 13:38:51;;;;;;;0.77;0.57;;;;;;;31.22;76.32;101230.75;10427996;28;20474;-80
2023/06/19 13:43:53;;;;;;;0.60;0.40;;;;;;;31.07;74.01;101235.13;10430623;28;20064;-79
2023/06/19 13:48:55;;;;;;;0.80;0.60;;;;;;;29.83;79.79;101228.22;10432645;28;20079;-80
2023/06/19 13:53:57;;;;;;;1.25;0.60;;;;;;;30.85;75.41;101217.69;10426751;28;20504;-80
2023/06/19 13:58:59;;;;;;;0.32;0.32;;;;;;;30.90;73.39;101231.59;10415255;28;20484;-80
2023/06/19 14:04:00;;;;;;;0.43;0.13;;;;;;;31.30;76.61;101224.06;10443686;28;20053;-80
2023/06/19 14:09:02;;;;;;;0.45;0.30;;;;;;;30.72;73.67;101221.97;10447640;28;20112;-80
2023/06/19 14:14:04;;;;;;;0.20;0.20;;;;;;;30.07;74.69;101229.69;10430100;28;20053;-80
2023/06/19 14:19:05;;;;;;;0.30;0.20;;;;;;;30.39;73.29;101227.16;10450572;28;20053;-80
2023/06/19 14:24:07;;;;;;;0.30;0.25;;;;;;;31.43;75.13;101218.03;10448388;28;20055;-81
2023/06/19 14:29:09;;;;;;;0.15;0.15;;;;;;;30.82;73.38;101209.84;10434615;28;20041;-80
2023/06/19 14:34:11;;;;;;;0.47;0.32;;;;;;;31.66;72.75;101223.88;10466265;28;20528;-81
2023/06/19 14:39:12;;;;;;;0.13;0.13;;;;;;;31.06;73.03;101222.75;10435914;28;20139;-80
2023/06/19 14:44:15;;;;;;;0.80;0.38;;;;;;;31.53;71.94;101224.56;10458671;28;20123;-81
2023/06/19 14:49:17;;;;;;;2.08;0.50;;;;;;;31.21;69.74;101213.94;10417683;28;20119;-81
2023/06/19 14:54:18;;;;;;;0.20;0.20;;;;;;;30.82;71.78;101212.53;10455437;28;20052;-81
2023/06/19 14:59:20;;;;;;;1.85;0.47;;;;;;;31.23;71.30;101214.72;10442536;28;20037;-81
2023/06/19 15:04:22;;;;;;;0.35;0.35;;;;;;;31.68;75.56;101214.84;10447529;28;20048;-81
2023/06/19 15:09:25;;;;;;;0.73;0.40;;;;;;;29.98;72.40;101226.66;10433285;28;20232;-79
2023/06/19 15:14:27;;;;;;;0.30;0.30;;;;;;;30.38;71.59;101214.81;10448833;28;20057;-80
2023/06/19 15:19:29;;;;;;;0.68;0.10;;;;;;;30.44;69.20;101212.75;10450211;28;20057;-81
2023/06/19 15:24:30;;;;;;;0.43;0.30;;;;;;;30.79;73.13;101212.69;10447640;28;20067;-80
2023/06/19 15:29:32;;;;;;;0.60;0.40;;;;;;;31.29;68.13;101209.03;10448850;28;20048;-81
2023/06/19 15:34:36;;;;;;;0.10;0.10;;;;;;;30.60;67.64;101202.22;10449149;28;20496;-81
2023/06/19 15:39:38;;;;;;;0.00;0.00;;;;;;;31.11;74.86;101210.06;10427528;28;20064;-81
2023/06/19 15:44:40;;;;;;;0.10;0.05;;;;;;;30.94;69.32;101193.22;10455097;28;20041;-81
2023/06/19 15:49:43;;;;;;;0.43;0.38;;;;;;;30.81;68.86;101205.47;10433229;28;20120;-80
2023/06/19 15:54:45;;;;;;;0.38;0.38;;;;;;;31.13;68.81;101198.41;10447917;28;20602;-82
2023/06/19 15:59:51;;;;;;;0.75;0.75;;;;;;;30.70;69.20;101198.97;10431234;28;20561;-83
2023/06/19 16:04:53;;;;;;;0.00;0.00;;;;;;;30.39;67.00;101192.59;10431008;28;20056;-82
2023/06/19 16:09:54;;;;;;;0.22;0.20;;;;;;;30.58;67.17;101188.97;10449040;28;20506;-81
2023/06/19 16:14:56;;;;;;;0.05;0.05;;;;;;;31.02;69.97;101188.31;10447104;28;20036;-82
2023/06/19 16:19:58;;;;;;;0.20;0.20;;;;;;;30.27;65.74;101195.91;10448514;28;20412;-82
2023/06/19 16:25:00;;;;;;;0.17;0.17;;;;;;;30.69;68.91;101191.03;10452402;28;20541;-82
2023/06/19 16:30:02;;;;;;;0.38;0.32;;;;;;;30.75;68.00;101192.53;10429899;28;20040;-81
2023/06/19 16:35:05;;;;;;;0.40;0.25;;;;;;;31.22;69.49;101183.72;10456373;28;20057;-82
2023/06/19 16:40:08;;;;;;;0.32;0.25;;;;;;;30.29;69.25;101186.06;10463105;28;20102;-82
2023/06/19 16:45:10;;;;;;;0.05;0.05;;;;;;;30.38;66.68;101182.91;10446070;28;20055;-82
2023/06/19 16:50:11;;;;;;;0.63;0.20;;;;;;;30.38;72.26;101193.53;10416167;28;20041;-82
2023/06/19 16:55:13;;;;;;;0.35;0.30;;;;;;;30.36;73.54;101190.09;10432278;28;20562;-81
2023/06/19 17:00:16;;;;;;;0.35;0.25;;;;;;;31.21;73.12;101184.66;10429165;28;20492;-82
2023/06/19 17:05:17;;;;;;;0.20;0.20;;;;;;;31.10;68.41;101184.41;10432439;28;20112;-82
2023/06/19 17:10:19;;;;;;;0.08;0.08;;;;;;;31.05;67.11;101186.44;10433115;28;20049;-81
2023/06/19 17:15:21;;;;;;;0.00;0.00;;;;;;;30.88;69.92;101185.56;10451482;28;20056;-81
2023/06/19 17:20:23;;;;;;;0.10;0.08;;;;;;;31.00;73.74;101189.34;10448538;28;20048;-81
2023/06/19 17:25:26;;;;;;;0.10;0.10;;;;;;;30.41;70.71;101200.50;10414352;28;20053;-81
2023/06/19 17:30:28;;;;;;;0.75;0.35;;;;;;;30.93;72.82;101199.50;10456372;28;20033;-81
2023/06/19 17:35:29;;;;;;;0.28;0.15;;;;;;;30.91;71.37;101198.72;10450908;28;20053;-82
2023/06/19 17:40:31;;;;;;;0.08;0.05;;;;;;;30.97;70.33;101201.03;10452545;28;20493;-81
2023/06/19 17:45:33;;;;;;;0.00;0.00;;;;;;;31.09;66.80;101193.34;10460456;28;20400;-81
2023/06/19 17:50:34;;;;;;;0.00;0.00;;;;;;;30.74;73.28;101182.81;10453581;28;20059;-81
2023/06/19 17:55:36;;;;;;;0.25;0.25;;;;;;;30.65;73.98;101185.03;10451000;28;20098;-80
2023/06/19 18:00:38;;;;;;;0.20;0.20;;;;;;;30.74;70.09;101188.13;10436021;28;20047;-81
2023/06/19 18:05:40;;;;;;;0.00;0.00;;;;;;;30.15;71.99;101185.91;10433280;28;20082;-81
2023/06/19 18:10:41;;;;;;;0.20;0.20;;;;;;;30.00;74.15;101187.59;10458461;28;20053;-80
2023/06/19 18:15:43;;;;;;;0.10;0.10;;;;;;;29.51;74.75;101181.13;10450367;28;20128;-81
2023/06/19 18:20:56;;;;;;;1.10;0.85;;;;;;;29.62;74.07;101199.19;10464846;28;20055;-82
2023/06/19 18:25:57;;;;;;;0.47;0.22;;;;;;;29.57;74.32;101195.91;10432168;28;20147;-81
2023/06/19 18:30:59;;;;;;;0.75;0.05;;;;;;;29.41;76.24;101182.53;10448126;28;20395;-81
2023/06/19 18:36:00;;;;;;;0.03;0.00;;;;;;;29.24;79.13;101183.31;10437915;28;20496;-80
2023/06/19 18:41:02;;;;;;;0.20;0.20;;;;;;;29.05;78.03;101192.16;10471085;28;20037;-80
2023/06/19 18:46:04;;;;;;;0.73;0.35;;;;;;;29.31;78.16;101190.06;10432502;28;20155;-80
2023/06/19 18:51:06;;;;;;;0.10;0.00;;;;;;;29.42;80.34;101194.84;10468998;28;20049;-81
2023/06/19 18:56:08;;;;;;;0.08;0.08;;;;;;;29.33;81.49;101193.50;10417660;28;20399;-81
2023/06/19 19:01:09;;;;;;;0.32;0.28;;;;;;;28.72;85.29;101192.78;10458961;28;20059;-80
2023/06/19 19:06:11;;;;;;;0.03;0.00;;;;;;;29.11;87.04;101191.88;10440529;28;20045;-80
2023/06/19 19:11:13;;;;;;;0.40;0.10;;;;;;;29.58;76.17;101202.94;10447282;28;20048;-81
2023/06/19 19:16:17;;;;;;;0.00;0.00;;;;;;;29.28;78.27;101212.28;10456329;28;20052;-81
2023/06/19 19:21:18;;;;;;;0.00;0.00;;;;;;;28.99;83.04;101205.72;10468185;28;20500;-81
2023/06/19 19:26:20;;;;;;;0.55;0.22;;;;;;;29.07;82.72;101216.81;10454601;28;20045;-81
2023/06/19 19:31:22;;;;;;;2.63;0.20;;;;;;;28.46;90.64;101218.66;10437943;28;20381;-80
2023/06/19 19:36:24;;;;;;;0.45;0.10;;;;;;;27.18;96.19;101216.84;10441424;28;20707;-81
2023/06/19 19:41:25;;;;;;;0.05;0.05;;;;;;;27.98;87.73;101223.34;10448908;28;20041;-80
2023/06/19 19:46:27;;;;;;;0.32;0.10;;;;;;;27.74;91.50;101230.50;10444336;28;20049;-81
2023/06/19 19:51:28;;;;;;;0.40;0.10;;;;;;;27.33;94.60;101236.53;10433290;28;20041;-81
2023/06/19 19:56:30;;;;;;;0.00;0.00;;;;;;;27.58;97.36;101234.72;10448692;28;20048;-81
2023/06/19 20:01:32;;;;;;;0.00;0.00;;;;;;;27.60;98.94;101248.75;10451572;28;20147;-81
2023/06/19 20:06:34;;;;;;;0.22;0.20;;;;;;;27.01;97.09;101245.69;10429166;28;20089;-81
2023/06/19 20:11:36;;;;;;;0.30;0.20;;;;;;;26.95;100.00;101241.53;10434035;28;20040;-81
